Airfield :
LOGIN :

Register | Disclaimer

   EN    FR    IT 

 










Legend :    VFR   Marginal VFR   IFR   Intensive IFR   Very Intensive IFR
Visi :
Ceiling :
>= 8 km
>= 3000ft
5 to 8 km
1000 to 3000 ft
1500m to 5 km
500 to 1000 ft
800 to 1500m
200 to 500 ft
< 800m
< 200 ft
Symbols :   Thunderstorms  Fog  Heavy snow  Heavy precipitations  Wind > 20 kt
SIGMETs :     Misc.  Thunderstorms  Icing  Turbulence  Mountain Waves  Volcanic Ashes







- Airport Elevation : 1416 ft
- IATA code : ZRH


LSZH - Zurich

CURRENT METAR :
  • 251950Z 28008KT 9999 FEW055 SCT060 BKN070 17/09 Q1016 NOSIG

EXPIRED METARs :
  • 251920Z 30010KT 9999 FEW060 BKN080 18/09 Q1015 NOSIG
  • 251850Z 28010KT 9999 FEW060 SCT080 BKN100 18/09 Q1014 NOSIG
  • 251820Z 28010KT 9999 FEW060 SCT080 19/09 Q1014 NOSIG
  • 251750Z 29013KT 9999 FEW065 SCT085 19/10 Q1014 NOSIG
  • 251720Z 29012KT 9999 FEW060 20/10 Q1014 NOSIG

TAF TAF LSZH
Valid from the 25 at 18:00 until the 27 at 00:00 UTC


251725Z 2518/2624 29012KT 9999 FEW035 SCT080 TX17/2614Z TN10/2604Z
BECMG 2518/2520 25005KT
PROB40
TEMPO 2602/2609 SHRA BKN030
TEMPO 2610/2618 30010G20KT
ATIS : +41 43 816 2295 (DEP) +41 43 816 2294 (ARR)
No reported NOTAMs for that airfield.



MET'MAP, your aeronautical weather chart ! - Copyright ORBIFLY December 2007 - Disclaimer

ORBIFLY MET'MAP TEAM :

Programming & Development : Alexandra Zaïnal
Concept & Development : Baudouin d'Aumeries
Co-Development & Prog : Marc-Olivier Méhu
Technical & hardware support : Manuel Goepfert

Contact : metmap@orbifly.com




SOURCES & CREDITS :

   NOAA